• Join FlightAware (Why Join?)
  • Login
  • US Flag 
11:52PM EST


 

Airport Tracker/Info


-or-


 

Live Flight TrackerFlight Track Log ✈ FLG3757 ✈ 15-Oct-2013 ✈ KBGM - KDTW

Flight Track Log - Related Links

Times and Time Zones

All times are in EDT time to prevent confusion due to time zone crossing. See the FLG3757 flight status page for this flight to view local times or setup timezone preferences in your user account.

Time Position Orientation Groundspeed Altitude Reporting Facility
EDT Latitude Longitude Course Direction KTS MPH feet Rate Location/Type
06:12AM 42.2453 -76.0497 292° West 246 283 3,700  Level Cleveland Center
06:13AM 42.2675 -76.1258 292° West 223 257 5,900 2,460 Climbing Cleveland Center
06:14AM 42.2939 -76.2231 290° West 262 302 8,700 2,280 Climbing Cleveland Center
06:15AM 42.3214 -76.3242 290° West 282 325 10,600 1,740 Climbing Cleveland Center
06:16AM 42.3564 -76.4478 291° West 324 373 12,300 1,680 Climbing Cleveland Center
06:17AM 42.3892 -76.5703 290° West 344 396 14,100 1,560 Climbing Cleveland Center
06:18AM 42.4239 -76.6953 291° West 355 409 15,500 1,260 Climbing Cleveland Center
06:19AM 42.4575 -76.8244 289° West 362 417 16,700 1,140 Climbing Cleveland Center
06:20AM 42.4931 -76.9567 290° West 374 430 17,900 1,320 Climbing Cleveland Center
06:21AM 42.5278 -77.0864 290° West 367 422 19,400 1,200 Climbing Cleveland Center
06:22AM 42.5619 -77.2153 290° West 365 420 20,400 840 Climbing Cleveland Center
06:23AM 42.5969 -77.3500 289° West 377 434 21,200 840 Climbing Cleveland Center
06:24AM 42.6392 -77.5097 290° West 389 448 22,100 780 Climbing Cleveland Center
06:25AM 42.6761 -77.6522 289° West 398 458 22,900 780 Climbing Cleveland Center
06:26AM 42.7114 -77.7886 289° West 400 460 23,700 780 Climbing Cleveland Center
06:27AM 42.7494 -77.9347 290° West 409 471 24,500 780 Climbing Cleveland Center
06:28AM 42.7656 -78.0814 279° West 393 452 25,300 720 Climbing Cleveland Center
06:29AM 42.7644 -78.2319 269° West 400 460 26,000 300 Climbing Cleveland Center
06:30AM 42.7628 -78.3864 269° West 411 473 26,000  Level Cleveland Center
06:31AM 42.7603 -78.5789 269° West 426 490 26,000  Level Cleveland Center
06:32AM 42.7583 -78.7422 269° West 434 499 26,000  Level Cleveland Center
06:33AM 42.7567 -78.9078 269° West 438 504 26,000  Level Cleveland Center
06:34AM 42.7539 -79.0731 269° West 439 505 26,000  Level Cleveland Center
06:35AM 42.7506 -79.2406 269° West 441 507 26,000  Level Cleveland Center
06:36AM 42.7469 -79.4081 268° West 444 511 26,000  Level Cleveland Center
06:37AM 42.7425 -79.5753 268° West 443 510 26,000  Level Cleveland Center
06:38AM 42.7383 -79.7436 268° West 447 514 26,000  Level Cleveland Center
06:39AM 42.7350 -79.9108 269° West 446 513 26,000  Level Cleveland Center
06:40AM 42.7292 -80.0803 267° West 446 513 26,000  Level Cleveland Center
06:42AM 42.7236 -80.2478 267° West 442 509 26,000  Level Cleveland Center
06:43AM 42.7189 -80.4169 268° West 444 511 26,000  Level Cleveland Center
06:44AM 42.7125 -80.6131 268° West 442 509 26,000 -480 Level Cleveland Center
06:45AM 42.7086 -80.7844 268° West 450 518 25,100 -1,020 Descending Cleveland Center
06:46AM 42.7008 -80.9458 266° West 434 499 24,000 -540 Descending Cleveland Center
06:47AM 42.6803 -81.0983 260° West 413 475 24,000  Level Cleveland Center
06:48AM 42.6633 -81.2575 262° West 420 483 24,000  Level Cleveland Center
06:49AM 42.6453 -81.4122 261° West 415 478 24,000  Level Cleveland Center
06:50AM 42.6264 -81.5703 261° West 420 483 24,000  Level Cleveland Center
06:51AM 42.6072 -81.7272 261° West 421 484 24,000 -1,140 Level Cleveland Center
06:52AM 42.5897 -81.8833 261° West 416 479 21,700 -2,220 Descending Cleveland Center
06:53AM 42.5708 -82.0286 260° West 398 458 19,500 -2,160 Descending Cleveland Center
06:54AM 42.5508 -82.1956 261° West 377 434 17,200 -2,100 Descending Cleveland Center
06:55AM 42.5364 -82.3050 260° West 375 432 15,300 -2,340 Descending Cleveland Center
06:55AM 42.5328 -82.3403 262° West 367 422 14,900 -2,220 Descending Cleveland Center
06:56AM 42.5183 -82.4572 261° West 366 421 13,100 -1,740 Descending Cleveland Center
06:56AM 42.5194 -82.4400 85° East 366 421 13,300 -1,200 Climbing Cleveland Center
06:57AM 42.4925 -82.5869 256° West 340 391 11,900 -1,380 Descending Cleveland Center
06:57AM 42.5000 -82.5722 55° Northeast 362 417 11,900 -1,500 Level Cleveland Center
06:58AM 42.4553 -82.6953 244° Southwest 290 334 10,400 -1,620 Descending Cleveland Center
06:58AM 42.4531 -82.6961 195° South 313 360 10,300 -1,320 Descending Cleveland Center
06:59AM 42.4214 -82.7897 245° Southwest 274 315 9,100 -1,260 Descending Cleveland Center
06:59AM 42.4189 -82.7881 154° Southeast 284 327 9,000 -1,200 Descending Cleveland Center
07:00AM 42.4119 -82.8903 265° West 279 321 7,900 -1,200 Descending Cleveland Center
07:00AM 42.4119 -82.8900 90° East 275 316 7,800 -900 Descending Cleveland Center
07:01AM 42.4106 -82.9947 269° West 277 319 7,000 -900 Descending Cleveland Center
07:01AM 42.4081 -82.9953 189° South 278 320 6,900 -1,500 Descending Cleveland Center
07:02AM 42.4069 -83.0958 269° West 269 310 5,500 -1,500 Descending Cleveland Center
07:02AM 42.4053 -83.0947 154° Southeast 271 312 5,400 -360 Descending Cleveland Center
07:03AM 42.3850 -83.1944 255° West 209 241 5,100 -720 Descending Cleveland Center
07:04AM 42.3458 -83.2400 221° Southwest 178 205 4,000 -1,020 Descending Cleveland Center
07:04AM 42.3531 -83.2356 24° Northeast 204 235 4,100 -1,440 Climbing Cleveland Center
07:05AM 42.3058 -83.2711 209° Southwest 167 192 2,600 -1,380 Descending Cleveland Center
07:05AM 42.3106 -83.2650 44° Northeast 178 205 2,700 -720 Climbing Cleveland Center
07:06AM 42.2681 -83.2969 209° Southwest 136 157 1,900 -840 Descending Cleveland Center
07:06AM 42.2728 -83.2942 24° Northeast 165 190 1,900 -720 Level Cleveland Center
07:07AM 42.2347 -83.3233 210° Southwest 139 160 1,200 -720 Descending Cleveland Center
07:07AM 42.2394 -83.3181 40° Northeast 147 169 1,200  Level Cleveland Center
07:09AM 42.2124 -83.3534 236° Southwest  Level Estimated
07:16AM 42.2124 -83.3534 236° Southwest  Level Estimated
07:17AM 42.2124 -83.3534 236° Southwest  Level Estimated